sensor_id;sensor_type;location;lat;lon;timestamp;pressure;altitude;pressure_sealevel;temperature;humidity
23589;BME280;11972;48.078;11.876;2024-03-23T00:55:31;94991.13;;;6.09;100.00
23589;BME280;11972;48.078;11.876;2024-03-23T00:59:31;94975.25;;;6.02;100.00
23589;BME280;11972;48.078;11.876;2024-03-23T01:03:32;94967.53;;;6.01;100.00
23589;BME280;11972;48.078;11.876;2024-03-23T01:07:32;94960.53;;;6.01;100.00
23589;BME280;11972;48.078;11.876;2024-03-23T01:11:33;94955.09;;;6.03;100.00
23589;BME280;11972;48.078;11.876;2024-03-23T01:15:33;94944.28;;;6.06;100.00
23589;BME280;11972;48.078;11.876;2024-03-23T01:19:33;94946.69;;;6.15;100.00
23589;BME280;11972;48.078;11.876;2024-03-23T01:23:34;94942.25;;;6.24;100.00
23589;BME280;11972;48.078;11.876;2024-03-23T01:27:34;94935.97;;;6.33;100.00
23589;BME280;11972;48.078;11.876;2024-03-23T01:31:34;94928.25;;;6.40;100.00
23589;BME280;11972;48.078;11.876;2024-03-23T01:35:35;94917.56;;;6.41;100.00
23589;BME280;11972;48.078;11.876;2024-03-23T01:39:35;94921.69;;;6.44;100.00
23589;BME280;11972;48.078;11.876;2024-03-23T01:43:35;94923.09;;;6.55;100.00
23589;BME280;11972;48.078;11.876;2024-03-23T01:47:36;94918.50;;;6.57;100.00
23589;BME280;11972;48.078;11.876;2024-03-23T01:51:37;94916.19;;;6.54;100.00
23589;BME280;11972;48.078;11.876;2024-03-23T01:55:37;94917.19;;;6.53;100.00
23589;BME280;11972;48.078;11.876;2024-03-23T01:59:39;94908.19;;;6.55;100.00
23589;BME280;11972;48.078;11.876;2024-03-23T02:03:40;94900.66;;;6.52;100.00
23589;BME280;11972;48.078;11.876;2024-03-23T02:07:41;94897.22;;;6.52;100.00
23589;BME280;11972;48.078;11.876;2024-03-23T02:11:41;94889.34;;;6.52;100.00
23589;BME280;11972;48.078;11.876;2024-03-23T02:15:42;94891.97;;;6.52;100.00
23589;BME280;11972;48.078;11.876;2024-03-23T02:19:42;94875.94;;;6.46;100.00
23589;BME280;11972;48.078;11.876;2024-03-23T02:23:42;94875.94;;;6.46;100.00
23589;BME280;11972;48.078;11.876;2024-03-23T02:27:43;94869.34;;;6.51;100.00
23589;BME280;11972;48.078;11.876;2024-03-23T02:31:43;94869.22;;;6.44;100.00
23589;BME280;11972;48.078;11.876;2024-03-23T02:35:44;94860.56;;;6.35;100.00
23589;BME280;11972;48.078;11.876;2024-03-23T02:39:45;94854.22;;;6.30;100.00
23589;BME280;11972;48.078;11.876;2024-03-23T02:43:45;94845.97;;;6.33;100.00
23589;BME280;11972;48.078;11.876;2024-03-23T02:47:45;94844.31;;;6.40;100.00
23589;BME280;11972;48.078;11.876;2024-03-23T02:51:46;94836.56;;;6.46;100.00
23589;BME280;11972;48.078;11.876;2024-03-23T02:55:48;94830.97;;;6.50;100.00
23589;BME280;11972;48.078;11.876;2024-03-23T02:59:48;94830.97;;;6.50;100.00
23589;BME280;11972;48.078;11.876;2024-03-23T03:03:49;94825.50;;;6.59;100.00
23589;BME280;11972;48.078;11.876;2024-03-23T03:07:49;94831.31;;;6.69;100.00
23589;BME280;11972;48.078;11.876;2024-03-23T03:11:49;94822.41;;;6.79;100.00
23589;BME280;11972;48.078;11.876;2024-03-23T03:15:50;94824.19;;;6.78;100.00
23589;BME280;11972;48.078;11.876;2024-03-23T03:19:50;94816.28;;;6.86;100.00
23589;BME280;11972;48.078;11.876;2024-03-23T03:23:56;94802.25;;;6.94;100.00
23589;BME280;11972;48.078;11.876;2024-03-23T03:27:56;94806.00;;;7.00;100.00
23589;BME280;11972;48.078;11.876;2024-03-23T03:31:57;94802.84;;;7.04;100.00
23589;BME280;11972;48.078;11.876;2024-03-23T03:35:57;94810.88;;;7.03;100.00
23589;BME280;11972;48.078;11.876;2024-03-23T03:39:57;94796.78;;;7.04;100.00
23589;BME280;11972;48.078;11.876;2024-03-23T03:43:58;94787.19;;;7.11;100.00
23589;BME280;11972;48.078;11.876;2024-03-23T03:48:02;94791.63;;;7.10;100.00
23589;BME280;11972;48.078;11.876;2024-03-23T03:52:02;94783.00;;;7.02;100.00
23589;BME280;11972;48.078;11.876;2024-03-23T03:56:03;94774.56;;;6.91;100.00
23589;BME280;11972;48.078;11.876;2024-03-23T04:00:04;94770.47;;;6.89;100.00
23589;BME280;11972;48.078;11.876;2024-03-23T04:04:05;94758.91;;;6.83;100.00
23589;BME280;11972;48.078;11.876;2024-03-23T04:08:07;94761.59;;;6.75;100.00
23589;BME280;11972;48.078;11.876;2024-03-23T04:12:07;94756.69;;;6.72;100.00
23589;BME280;11972;48.078;11.876;2024-03-23T04:16:08;94753.06;;;6.73;100.00
23589;BME280;11972;48.078;11.876;2024-03-23T04:20:09;94745.47;;;6.78;100.00
23589;BME280;11972;48.078;11.876;2024-03-23T04:24:11;94738.44;;;6.93;100.00
23589;BME280;11972;48.078;11.876;2024-03-23T04:28:11;94733.47;;;6.99;100.00
23589;BME280;11972;48.078;11.876;2024-03-23T04:32:12;94732.13;;;7.03;100.00
23589;BME280;11972;48.078;11.876;2024-03-23T04:36:12;94721.34;;;6.97;100.00
23589;BME280;11972;48.078;11.876;2024-03-23T04:40:12;94726.31;;;6.92;100.00
23589;BME280;11972;48.078;11.876;2024-03-23T04:44:13;94716.63;;;6.93;100.00
23589;BME280;11972;48.078;11.876;2024-03-23T04:48:14;94712.31;;;7.00;100.00
23589;BME280;11972;48.078;11.876;2024-03-23T04:52:14;94700.59;;;7.03;100.00
23589;BME280;11972;48.078;11.876;2024-03-23T04:56:16;94690.31;;;7.16;100.00
23589;BME280;11972;48.078;11.876;2024-03-23T05:00:17;94690.09;;;7.32;100.00
23589;BME280;11972;48.078;11.876;2024-03-23T05:04:17;94684.22;;;7.45;100.00
23589;BME280;11972;48.078;11.876;2024-03-23T05:08:18;94672.03;;;7.59;100.00
23589;BME280;11972;48.078;11.876;2024-03-23T05:12:18;94656.53;;;7.64;100.00
23589;BME280;11972;48.078;11.876;2024-03-23T05:16:18;94641.84;;;7.69;100.00
23589;BME280;11972;48.078;11.876;2024-03-23T05:20:19;94636.03;;;7.74;100.00
23589;BME280;11972;48.078;11.876;2024-03-23T05:24:19;94630.03;;;7.80;100.00
23589;BME280;11972;48.078;11.876;2024-03-23T05:28:19;94615.63;;;7.97;100.00
23589;BME280;11972;48.078;11.876;2024-03-23T05:32:20;94615.13;;;8.09;100.00
23589;BME280;11972;48.078;11.876;2024-03-23T05:36:21;94616.47;;;8.26;100.00
23589;BME280;11972;48.078;11.876;2024-03-23T05:40:21;94612.72;;;8.35;100.00
23589;BME280;11972;48.078;11.876;2024-03-23T05:44:22;94616.66;;;8.46;100.00
23589;BME280;11972;48.078;11.876;2024-03-23T05:48:23;94610.69;;;8.59;100.00
23589;BME280;11972;48.078;11.876;2024-03-23T05:52:23;94603.72;;;8.73;100.00
23589;BME280;11972;48.078;11.876;2024-03-23T05:56:25;94595.25;;;8.84;100.00
23589;BME280;11972;48.078;11.876;2024-03-23T06:00:28;94600.78;;;8.95;100.00
23589;BME280;11972;48.078;11.876;2024-03-23T06:04:28;94587.09;;;9.07;100.00
23589;BME280;11972;48.078;11.876;2024-03-23T06:08:29;94576.22;;;9.23;100.00
23589;BME280;11972;48.078;11.876;2024-03-23T06:12:29;94571.19;;;9.41;100.00
23589;BME280;11972;48.078;11.876;2024-03-23T06:16:29;94569.44;;;9.62;100.00
23589;BME280;11972;48.078;11.876;2024-03-23T06:20:31;94565.00;;;9.82;100.00
23589;BME280;11972;48.078;11.876;2024-03-23T06:24:31;94563.22;;;10.03;100.00
23589;BME280;11972;48.078;11.876;2024-03-23T06:28:31;94541.69;;;10.19;100.00
23589;BME280;11972;48.078;11.876;2024-03-23T06:32:32;94535.22;;;10.35;100.00
23589;BME280;11972;48.078;11.876;2024-03-23T06:36:32;94527.09;;;10.50;100.00
23589;BME280;11972;48.078;11.876;2024-03-23T06:40:33;94523.41;;;10.64;100.00
23589;BME280;11972;48.078;11.876;2024-03-23T06:44:33;94513.81;;;10.76;100.00
23589;BME280;11972;48.078;11.876;2024-03-23T06:48:33;94501.59;;;10.88;100.00
23589;BME280;11972;48.078;11.876;2024-03-23T06:52:34;94484.69;;;11.03;100.00
23589;BME280;11972;48.078;11.876;2024-03-23T06:56:34;94476.19;;;11.32;100.00
23589;BME280;11972;48.078;11.876;2024-03-23T07:00:34;94458.06;;;11.67;100.00
23589;BME280;11972;48.078;11.876;2024-03-23T07:04:35;94445.75;;;11.80;100.00
23589;BME280;11972;48.078;11.876;2024-03-23T07:08:36;94436.50;;;11.96;100.00
23589;BME280;11972;48.078;11.876;2024-03-23T07:12:37;94431.84;;;12.16;100.00
23589;BME280;11972;48.078;11.876;2024-03-23T07:16:37;94432.22;;;12.38;100.00
23589;BME280;11972;48.078;11.876;2024-03-23T07:20:37;94411.56;;;12.65;100.00
23589;BME280;11972;48.078;11.876;2024-03-23T07:24:38;94408.06;;;13.01;100.00
23589;BME280;11972;48.078;11.876;2024-03-23T07:28:40;94410.34;;;13.58;100.00
23589;BME280;11972;48.078;11.876;2024-03-23T07:32:44;94399.19;;;14.38;100.00
23589;BME280;11972;48.078;11.876;2024-03-23T07:36:45;94393.59;;;15.15;100.00
23589;BME280;11972;48.078;11.876;2024-03-23T07:40:45;94402.31;;;15.56;100.00
23589;BME280;11972;48.078;11.876;2024-03-23T07:44:45;94403.78;;;15.63;100.00
23589;BME280;11972;48.078;11.876;2024-03-23T07:48:47;94417.13;;;15.52;100.00
23589;BME280;11972;48.078;11.876;2024-03-23T07:52:49;94408.16;;;15.86;100.00
23589;BME280;11972;48.078;11.876;2024-03-23T07:56:49;94416.88;;;15.99;100.00
23589;BME280;11972;48.078;11.876;2024-03-23T08:00:50;94434.63;;;16.27;100.00
23589;BME280;11972;48.078;11.876;2024-03-23T08:04:50;94453.00;;;16.28;100.00
23589;BME280;11972;48.078;11.876;2024-03-23T08:08:54;94473.19;;;15.91;100.00
23589;BME280;11972;48.078;11.876;2024-03-23T08:13:00;94564.63;;;15.04;100.00
23589;BME280;11972;48.078;11.876;2024-03-23T08:17:00;94595.00;;;14.07;100.00
23589;BME280;11972;48.078;11.876;2024-03-23T08:21:02;94578.25;;;13.47;100.00
23589;BME280;11972;48.078;11.876;2024-03-23T08:25:03;94596.44;;;12.81;100.00
23589;BME280;11972;48.078;11.876;2024-03-23T08:29:03;94620.47;;;12.36;100.00
23589;BME280;11972;48.078;11.876;2024-03-23T08:33:04;94663.69;;;11.92;100.00
23589;BME280;11972;48.078;11.876;2024-03-23T08:37:04;94648.28;;;11.04;100.00
23589;BME280;11972;48.078;11.876;2024-03-23T08:41:09;94685.47;;;10.43;100.00
23589;BME280;11972;48.078;11.876;2024-03-23T08:45:09;94713.59;;;10.09;100.00
23589;BME280;11972;48.078;11.876;2024-03-23T08:49:10;94739.28;;;9.87;100.00
23589;BME280;11972;48.078;11.876;2024-03-23T08:53:11;94762.38;;;9.72;100.00
23589;BME280;11972;48.078;11.876;2024-03-23T08:57:12;94808.03;;;9.44;100.00
23589;BME280;11972;48.078;11.876;2024-03-23T09:01:13;94814.50;;;8.71;100.00
23589;BME280;11972;48.078;11.876;2024-03-23T09:05:13;94804.38;;;8.17;100.00
23589;BME280;11972;48.078;11.876;2024-03-23T09:09:14;94823.19;;;7.99;100.00
23589;BME280;11972;48.078;11.876;2024-03-23T09:13:14;94844.50;;;7.89;100.00
23589;BME280;11972;48.078;11.876;2024-03-23T09:17:14;94873.16;;;7.84;100.00
23589;BME280;11972;48.078;11.876;2024-03-23T09:21:15;94882.41;;;7.80;100.00
23589;BME280;11972;48.078;11.876;2024-03-23T09:25:15;94877.88;;;7.74;100.00
23589;BME280;11972;48.078;11.876;2024-03-23T09:29:15;94864.00;;;7.80;100.00
23589;BME280;11972;48.078;11.876;2024-03-23T09:33:16;94863.09;;;7.88;100.00
23589;BME280;11972;48.078;11.876;2024-03-23T09:37:16;94875.88;;;7.91;100.00
23589;BME280;11972;48.078;11.876;2024-03-23T09:41:16;94862.63;;;7.84;100.00
23589;BME280;11972;48.078;11.876;2024-03-23T09:45:21;94871.53;;;7.83;100.00
23589;BME280;11972;48.078;11.876;2024-03-23T09:49:21;94875.16;;;7.82;100.00
23589;BME280;11972;48.078;11.876;2024-03-23T09:53:22;94878.31;;;7.92;100.00
23589;BME280;11972;48.078;11.876;2024-03-23T09:57:23;94879.78;;;7.95;100.00
23589;BME280;11972;48.078;11.876;2024-03-23T10:01:23;94889.38;;;7.88;100.00
23589;BME280;11972;48.078;11.876;2024-03-23T10:05:24;94916.31;;;7.75;100.00
23589;BME280;11972;48.078;11.876;2024-03-23T10:09:25;94924.25;;;7.67;100.00
23589;BME280;11972;48.078;11.876;2024-03-23T10:13:27;94932.34;;;7.42;100.00
23589;BME280;11972;48.078;11.876;2024-03-23T10:17:29;94931.44;;;7.35;100.00
23589;BME280;11972;48.078;11.876;2024-03-23T10:21:29;94950.31;;;7.16;100.00
23589;BME280;11972;48.078;11.876;2024-03-23T10:25:30;94953.16;;;7.06;100.00
23589;BME280;11972;48.078;11.876;2024-03-23T10:29:30;94949.41;;;7.01;100.00
23589;BME280;11972;48.078;11.876;2024-03-23T10:33:30;94930.47;;;6.82;100.00
23589;BME280;11972;48.078;11.876;2024-03-23T10:37:31;94946.94;;;6.99;100.00
23589;BME280;11972;48.078;11.876;2024-03-23T10:41:31;94931.09;;;6.92;100.00
23589;BME280;11972;48.078;11.876;2024-03-23T10:45:32;94950.63;;;6.90;100.00
23589;BME280;11972;48.078;11.876;2024-03-23T10:49:33;94958.50;;;6.90;100.00
23589;BME280;11972;48.078;11.876;2024-03-23T10:53:34;94961.47;;;6.87;100.00
23589;BME280;11972;48.078;11.876;2024-03-23T10:57:57;94977.09;;;6.80;100.00
23589;BME280;11972;48.078;11.876;2024-03-23T11:02:00;94974.09;;;6.91;100.00
23589;BME280;11972;48.078;11.876;2024-03-23T11:06:04;94983.38;;;7.02;100.00
23589;BME280;11972;48.078;11.876;2024-03-23T11:10:25;94988.84;;;6.92;100.00
23589;BME280;11972;48.078;11.876;2024-03-23T11:14:25;95012.50;;;6.45;100.00
23589;BME280;11972;48.078;11.876;2024-03-23T11:18:25;95026.50;;;6.21;100.00
23589;BME280;11972;48.078;11.876;2024-03-23T11:26:41;95001.78;;;6.15;100.00
23589;BME280;11972;48.078;11.876;2024-03-23T11:30:41;95008.81;;;6.23;100.00
23589;BME280;11972;48.078;11.876;2024-03-23T11:34:42;94987.56;;;6.49;100.00
23589;BME280;11972;48.078;11.876;2024-03-23T11:38:43;94987.50;;;6.65;100.00
23589;BME280;11972;48.078;11.876;2024-03-23T11:42:43;94975.63;;;6.78;100.00
23589;BME280;11972;48.078;11.876;2024-03-23T11:46:44;94971.56;;;6.98;100.00
23589;BME280;11972;48.078;11.876;2024-03-23T11:50:45;94990.13;;;6.96;100.00
23589;BME280;11972;48.078;11.876;2024-03-23T11:54:46;94972.38;;;6.76;100.00
23589;BME280;11972;48.078;11.876;2024-03-23T11:58:47;94969.59;;;6.69;100.00
23589;BME280;11972;48.078;11.876;2024-03-23T12:02:49;94978.84;;;6.57;100.00
23589;BME280;11972;48.078;11.876;2024-03-23T12:06:49;94952.28;;;6.60;100.00
23589;BME280;11972;48.078;11.876;2024-03-23T12:11:04;94979.59;;;6.74;100.00
23589;BME280;11972;48.078;11.876;2024-03-23T12:15:07;94975.72;;;6.92;100.00
23589;BME280;11972;48.078;11.876;2024-03-23T12:19:08;94980.13;;;7.23;100.00
23589;BME280;11972;48.078;11.876;2024-03-23T12:23:11;94977.09;;;7.34;100.00
23589;BME280;11972;48.078;11.876;2024-03-23T12:27:11;94960.84;;;7.54;100.00
23589;BME280;11972;48.078;11.876;2024-03-23T12:31:12;94951.16;;;7.31;100.00
23589;BME280;11972;48.078;11.876;2024-03-23T12:35:12;94964.13;;;7.10;100.00
23589;BME280;11972;48.078;11.876;2024-03-23T12:39:13;94976.00;;;6.97;100.00
23589;BME280;11972;48.078;11.876;2024-03-23T12:43:14;94963.59;;;6.60;100.00
23589;BME280;11972;48.078;11.876;2024-03-23T12:47:14;94948.41;;;6.39;100.00
23589;BME280;11972;48.078;11.876;2024-03-23T12:51:14;94966.84;;;6.23;100.00
23589;BME280;11972;48.078;11.876;2024-03-23T12:55:15;94969.91;;;6.35;100.00
23589;BME280;11972;48.078;11.876;2024-03-23T12:59:15;94973.53;;;6.34;100.00
23589;BME280;11972;48.078;11.876;2024-03-23T13:03:16;94966.63;;;6.33;100.00
23589;BME280;11972;48.078;11.876;2024-03-23T13:07:18;94983.50;;;6.46;100.00
23589;BME280;11972;48.078;11.876;2024-03-23T13:11:18;94988.00;;;6.61;100.00
23589;BME280;11972;48.078;11.876;2024-03-23T13:15:19;94980.31;;;6.90;100.00
23589;BME280;11972;48.078;11.876;2024-03-23T13:19:20;94984.91;;;7.19;100.00
23589;BME280;11972;48.078;11.876;2024-03-23T13:23:24;94993.47;;;7.36;100.00
23589;BME280;11972;48.078;11.876;2024-03-23T13:27:24;94973.47;;;7.35;100.00
23589;BME280;11972;48.078;11.876;2024-03-23T13:31:24;94973.47;;;7.35;100.00
23589;BME280;11972;48.078;11.876;2024-03-23T13:35:25;94954.06;;;7.36;100.00
23589;BME280;11972;48.078;11.876;2024-03-23T13:39:25;94935.88;;;7.12;100.00
23589;BME280;11972;48.078;11.876;2024-03-23T13:43:27;94924.22;;;6.91;100.00
23589;BME280;11972;48.078;11.876;2024-03-23T13:47:31;94940.06;;;6.75;100.00
23589;BME280;11972;48.078;11.876;2024-03-23T13:51:31;94946.88;;;6.84;100.00
23589;BME280;11972;48.078;11.876;2024-03-23T13:55:32;94941.81;;;7.06;100.00
23589;BME280;11972;48.078;11.876;2024-03-23T13:59:32;94943.63;;;7.05;100.00
23589;BME280;11972;48.078;11.876;2024-03-23T14:03:32;94932.63;;;6.79;100.00
23589;BME280;11972;48.078;11.876;2024-03-23T14:07:33;94931.22;;;6.68;100.00
23589;BME280;11972;48.078;11.876;2024-03-23T14:11:33;94927.66;;;6.61;100.00
23589;BME280;11972;48.078;11.876;2024-03-23T14:15:33;94938.84;;;6.55;100.00
23589;BME280;11972;48.078;11.876;2024-03-23T14:19:34;94955.63;;;6.37;100.00
23589;BME280;11972;48.078;11.876;2024-03-23T14:23:34;95008.81;;;6.23;100.00
23589;BME280;11972;48.078;11.876;2024-03-23T14:27:35;95036.19;;;3.24;100.00
23589;BME280;11972;48.078;11.876;2024-03-23T14:31:38;95002.44;;;2.32;100.00
23589;BME280;11972;48.078;11.876;2024-03-23T14:35:38;94997.47;;;2.38;100.00
23589;BME280;11972;48.078;11.876;2024-03-23T14:39:40;94980.66;;;2.51;100.00
23589;BME280;11972;48.078;11.876;2024-03-23T14:43:41;95004.56;;;2.91;100.00
23589;BME280;11972;48.078;11.876;2024-03-23T14:47:44;95007.91;;;3.37;100.00
23589;BME280;11972;48.078;11.876;2024-03-23T14:51:45;95008.16;;;3.70;100.00
23589;BME280;11972;48.078;11.876;2024-03-23T14:55:46;95023.53;;;3.91;100.00
23589;BME280;11972;48.078;11.876;2024-03-23T14:59:49;95018.69;;;4.04;100.00
23589;BME280;11972;48.078;11.876;2024-03-23T15:03:49;95020.97;;;4.07;100.00
23589;BME280;11972;48.078;11.876;2024-03-23T15:07:53;95016.66;;;4.16;100.00
23589;BME280;11972;48.078;11.876;2024-03-23T15:11:53;95021.53;;;4.19;100.00
23589;BME280;11972;48.078;11.876;2024-03-23T15:15:56;95035.09;;;4.14;100.00
23589;BME280;11972;48.078;11.876;2024-03-23T15:19:57;95055.88;;;3.98;100.00
23589;BME280;11972;48.078;11.876;2024-03-23T15:24:15;95073.00;;;3.92;100.00
23589;BME280;11972;48.078;11.876;2024-03-23T15:28:16;95064.19;;;3.93;100.00
23589;BME280;11972;48.078;11.876;2024-03-23T15:32:16;95040.72;;;4.02;100.00
23589;BME280;11972;48.078;11.876;2024-03-23T15:36:18;95010.69;;;4.06;100.00
23589;BME280;11972;48.078;11.876;2024-03-23T15:40:18;94988.97;;;4.05;100.00
23589;BME280;11972;48.078;11.876;2024-03-23T15:44:18;94984.63;;;3.88;100.00
23589;BME280;11972;48.078;11.876;2024-03-23T15:48:19;94969.44;;;3.83;100.00
23589;BME280;11972;48.078;11.876;2024-03-23T15:52:19;94952.81;;;3.92;100.00
23589;BME280;11972;48.078;11.876;2024-03-23T15:56:19;94965.28;;;4.07;100.00
23589;BME280;11972;48.078;11.876;2024-03-23T16:00:20;94969.31;;;4.27;100.00
23589;BME280;11972;48.078;11.876;2024-03-23T16:04:20;94974.13;;;4.48;100.00
23589;BME280;11972;48.078;11.876;2024-03-23T16:08:21;94985.47;;;4.65;100.00
23589;BME280;11972;48.078;11.876;2024-03-23T16:12:21;94997.25;;;4.69;100.00
23589;BME280;11972;48.078;11.876;2024-03-23T16:16:22;94994.50;;;4.70;100.00
23589;BME280;11972;48.078;11.876;2024-03-23T16:20:23;94995.16;;;4.81;100.00
23589;BME280;11972;48.078;11.876;2024-03-23T16:24:24;94988.50;;;5.03;100.00
23589;BME280;11972;48.078;11.876;2024-03-23T16:28:36;94999.03;;;5.43;100.00
23589;BME280;11972;48.078;11.876;2024-03-23T16:32:38;95008.03;;;5.57;100.00
23589;BME280;11972;48.078;11.876;2024-03-23T16:36:39;95007.84;;;5.67;100.00
23589;BME280;11972;48.078;11.876;2024-03-23T16:40:39;95013.91;;;5.59;100.00
23589;BME280;11972;48.078;11.876;2024-03-23T16:44:40;95016.69;;;5.33;100.00
23589;BME280;11972;48.078;11.876;2024-03-23T16:48:41;95012.09;;;5.11;100.00
23589;BME280;11972;48.078;11.876;2024-03-23T16:52:41;95007.78;;;5.02;100.00
23589;BME280;11972;48.078;11.876;2024-03-23T16:56:42;94998.63;;;4.97;100.00
23589;BME280;11972;48.078;11.876;2024-03-23T17:00:42;95012.69;;;4.96;100.00
23589;BME280;11972;48.078;11.876;2024-03-23T17:04:42;95010.22;;;4.79;100.00
23589;BME280;11972;48.078;11.876;2024-03-23T17:08:43;94989.72;;;4.58;100.00
23589;BME280;11972;48.078;11.876;2024-03-23T17:12:50;94985.88;;;4.44;100.00
23589;BME280;11972;48.078;11.876;2024-03-23T17:16:51;95001.06;;;4.32;100.00
23589;BME280;11972;48.078;11.876;2024-03-23T17:20:51;94996.72;;;4.23;100.00
23589;BME280;11972;48.078;11.876;2024-03-23T17:24:52;95005.22;;;4.17;100.00
23589;BME280;11972;48.078;11.876;2024-03-23T17:28:53;95005.34;;;4.15;100.00
23589;BME280;11972;48.078;11.876;2024-03-23T17:32:53;95018.06;;;4.10;100.00
23589;BME280;11972;48.078;11.876;2024-03-23T17:36:54;95021.09;;;3.97;100.00
23589;BME280;11972;48.078;11.876;2024-03-23T17:40:57;95008.66;;;3.91;100.00
23589;BME280;11972;48.078;11.876;2024-03-23T17:44:57;95033.13;;;3.90;100.00
23589;BME280;11972;48.078;11.876;2024-03-23T17:48:58;95060.88;;;3.83;100.00
23589;BME280;11972;48.078;11.876;2024-03-23T17:52:59;95078.69;;;3.70;100.00
23589;BME280;11972;48.078;11.876;2024-03-23T17:57:00;95098.47;;;3.37;100.00
23589;BME280;11972;48.078;11.876;2024-03-23T18:01:07;95070.28;;;2.77;100.00
23589;BME280;11972;48.078;11.876;2024-03-23T18:05:08;95020.47;;;2.53;100.00
23589;BME280;11972;48.078;11.876;2024-03-23T18:09:08;95038.38;;;2.65;100.00
23589;BME280;11972;48.078;11.876;2024-03-23T18:13:10;95055.94;;;2.63;100.00
23589;BME280;11972;48.078;11.876;2024-03-23T18:17:10;95039.09;;;2.58;100.00
23589;BME280;11972;48.078;11.876;2024-03-23T18:21:11;95039.16;;;2.48;100.00
23589;BME280;11972;48.078;11.876;2024-03-23T18:25:11;95040.25;;;2.45;100.00
23589;BME280;11972;48.078;11.876;2024-03-23T18:29:11;95035.31;;;2.42;100.00
23589;BME280;11972;48.078;11.876;2024-03-23T18:33:13;95058.38;;;2.47;100.00
23589;BME280;11972;48.078;11.876;2024-03-23T18:37:13;95052.03;;;2.49;100.00
23589;BME280;11972;48.078;11.876;2024-03-23T18:41:14;95060.19;;;2.37;100.00
23589;BME280;11972;48.078;11.876;2024-03-23T18:45:14;95060.31;;;2.35;100.00
23589;BME280;11972;48.078;11.876;2024-03-23T18:49:14;95084.94;;;2.51;100.00
23589;BME280;11972;48.078;11.876;2024-03-23T18:53:15;95084.91;;;2.60;100.00
23589;BME280;11972;48.078;11.876;2024-03-23T18:57:15;95114.81;;;2.66;100.00
23589;BME280;11972;48.078;11.876;2024-03-23T19:01:18;95120.88;;;2.57;100.00
23589;BME280;11972;48.078;11.876;2024-03-23T19:05:18;95090.84;;;2.53;100.00
23589;BME280;11972;48.078;11.876;2024-03-23T19:09:19;95089.75;;;2.55;100.00
23589;BME280;11972;48.078;11.876;2024-03-23T19:13:19;95079.44;;;2.54;100.00
23589;BME280;11972;48.078;11.876;2024-03-23T19:17:20;95067.94;;;2.46;100.00
23589;BME280;11972;48.078;11.876;2024-03-23T19:21:21;95062.72;;;2.46;100.00
23589;BME280;11972;48.078;11.876;2024-03-23T19:25:22;95066.31;;;2.45;100.00
23589;BME280;11972;48.078;11.876;2024-03-23T19:29:25;95072.78;;;2.41;100.00
23589;BME280;11972;48.078;11.876;2024-03-23T19:33:25;95084.16;;;2.40;100.00
23589;BME280;11972;48.078;11.876;2024-03-23T19:37:25;95067.19;;;2.36;100.00
23589;BME280;11972;48.078;11.876;2024-03-23T19:41:26;95057.72;;;2.35;100.00
23589;BME280;11972;48.078;11.876;2024-03-23T19:45:26;95061.69;;;2.39;100.00
23589;BME280;11972;48.078;11.876;2024-03-23T19:49:27;95055.78;;;2.37;100.00
23589;BME280;11972;48.078;11.876;2024-03-23T19:53:27;95048.53;;;2.31;100.00
23589;BME280;11972;48.078;11.876;2024-03-23T19:57:28;95048.53;;;2.31;100.00
23589;BME280;11972;48.078;11.876;2024-03-23T20:01:28;95043.03;;;2.34;100.00
23589;BME280;11972;48.078;11.876;2024-03-23T20:05:29;95036.56;;;2.38;100.00
23589;BME280;11972;48.078;11.876;2024-03-23T20:09:29;95026.81;;;2.40;100.00
23589;BME280;11972;48.078;11.876;2024-03-23T20:13:31;95017.75;;;2.44;100.00
23589;BME280;11972;48.078;11.876;2024-03-23T20:17:32;95020.78;;;2.40;100.00
23589;BME280;11972;48.078;11.876;2024-03-23T20:21:32;95023.63;;;2.19;100.00
23589;BME280;11972;48.078;11.876;2024-03-23T20:25:33;95017.91;;;2.06;100.00
23589;BME280;11972;48.078;11.876;2024-03-23T20:29:33;95012.41;;;2.09;100.00
23589;BME280;11972;48.078;11.876;2024-03-23T20:33:34;95009.13;;;2.07;100.00
23589;BME280;11972;48.078;11.876;2024-03-23T20:37:37;95003.63;;;2.10;100.00
23589;BME280;11972;48.078;11.876;2024-03-23T20:41:38;95005.81;;;2.14;100.00
23589;BME280;11972;48.078;11.876;2024-03-23T20:45:39;95004.69;;;2.17;100.00
23589;BME280;11972;48.078;11.876;2024-03-23T20:49:40;95004.56;;;2.18;100.00
23589;BME280;11972;48.078;11.876;2024-03-23T20:53:40;95008.66;;;2.21;100.00
23589;BME280;11972;48.078;11.876;2024-03-23T20:57:41;95013.75;;;2.22;100.00
23589;BME280;11972;48.078;11.876;2024-03-23T21:01:41;95014.25;;;2.26;100.00
23589;BME280;11972;48.078;11.876;2024-03-23T21:05:43;95014.78;;;2.30;100.00
23589;BME280;11972;48.078;11.876;2024-03-23T21:09:44;95008.75;;;2.29;100.00
23589;BME280;11972;48.078;11.876;2024-03-23T21:13:45;95017.28;;;2.31;100.00
23589;BME280;11972;48.078;11.876;2024-03-23T21:17:48;95008.19;;;2.35;100.00
23589;BME280;11972;48.078;11.876;2024-03-23T21:21:48;95002.41;;;2.41;100.00
23589;BME280;11972;48.078;11.876;2024-03-23T21:25:59;94989.75;;;2.46;100.00
23589;BME280;11972;48.078;11.876;2024-03-23T21:29:59;94985.88;;;2.51;100.00
23589;BME280;11972;48.078;11.876;2024-03-23T21:34:00;94976.44;;;2.49;100.00
23589;BME280;11972;48.078;11.876;2024-03-23T21:38:01;94971.91;;;2.52;100.00
23589;BME280;11972;48.078;11.876;2024-03-23T21:42:02;94973.16;;;2.47;100.00
23589;BME280;11972;48.078;11.876;2024-03-23T21:46:03;94973.34;;;2.36;100.00
23589;BME280;11972;48.078;11.876;2024-03-23T21:50:04;94974.50;;;2.24;100.00
23589;BME280;11972;48.078;11.876;2024-03-23T21:54:06;94978.38;;;2.20;100.00